Time;durP1;ratioP1;P1;durP2;ratioP2;P2;SDS_P1;SDS_P2;PMS_P1;PMS_P2;Temp;Humidity;BMP_temperature;BMP_pressure;BME280_temperature;BME280_humidity;BME280_pressure;Samples;Min_cycle;Max_cycle;Signal;HPM_P1;HPM_P2
2023/05/19 11:12:04;;;;;;;7.50;2.92;;;;;;;;;;5042567;28;92227;-78
2023/05/19 11:14:31;;;;;;;9.18;2.28;;;;;;;;;;5036031;28;92898;-80
2023/05/19 11:16:58;;;;;;;13.15;2.22;;;;;;;;;;5035883;28;91988;-80
2023/05/19 11:19:29;;;;;;;8.82;2.00;;;;;;;;;;5029442;28;91839;-81
2023/05/19 11:21:57;;;;;;;7.72;1.90;;;;;;;;;;5029374;28;93389;-81
2023/05/19 11:24:35;;;;;;;7.68;2.03;;;;;;;;;;5039555;28;92192;-81
2023/05/19 11:27:20;;;;;;;7.47;2.17;;;;;;;;;;5013463;28;91319;-81
2023/05/19 11:29:47;;;;;;;6.78;2.35;;;;;;;;;;5038813;28;93164;-81
2023/05/19 11:32:14;;;;;;;5.05;2.03;;;;;;;;;;5031557;28;92090;-82
2023/05/19 11:34:42;;;;;;;8.02;2.10;;;;;;;;;;5038609;28;92181;-81
2023/05/19 11:37:10;;;;;;;10.10;1.95;;;;;;;;;;5035939;28;91942;-81
2023/05/19 11:39:38;;;;;;;8.50;2.05;;;;;;;;;;5003299;28;92456;-81
2023/05/19 11:42:04;;;;;;;9.55;2.38;;;;;;;;;;5032060;27;94151;-82
2023/05/19 11:44:31;;;;;;;4.07;1.98;;;;;;;;;;5030702;28;91811;-82
2023/05/19 11:46:58;;;;;;;4.38;1.73;;;;;;;;;;5032842;28;92111;-79
2023/05/19 11:49:24;;;;;;;7.65;1.90;;;;;;;;;;5022328;28;91965;-80
2023/05/19 11:51:51;;;;;;;7.50;1.90;;;;;;;;;;5021515;28;91502;-80
2023/05/19 11:54:18;;;;;;;5.78;1.83;;;;;;;;;;5022977;28;91891;-79
2023/05/19 11:56:44;;;;;;;8.35;2.35;;;;;;;;;;5020268;28;92049;-79
2023/05/19 11:59:11;;;;;;;5.75;1.92;;;;;;;;;;5018897;28;91593;-79
2023/05/19 12:01:38;;;;;;;8.13;1.95;;;;;;;;;;5012697;28;92098;-81
2023/05/19 12:04:09;;;;;;;9.05;2.17;;;;;;;;;;5015604;28;92245;-81
2023/05/19 12:06:36;;;;;;;4.43;1.83;;;;;;;;;;5017609;28;92105;-81
2023/05/19 12:09:06;;;;;;;7.57;1.88;;;;;;;;;;5018485;28;91860;-80
2023/05/19 12:11:33;;;;;;;7.72;1.92;;;;;;;;;;5023466;28;92211;-80
2023/05/19 12:14:00;;;;;;;9.05;2.40;;;;;;;;;;5024757;28;93490;-80
2023/05/19 12:16:34;;;;;;;12.30;2.30;;;;;;;;;;5028690;28;91950;-79
2023/05/19 12:19:03;;;;;;;9.23;2.75;;;;;;;;;;5018698;28;91356;-80
2023/05/19 12:21:30;;;;;;;7.70;1.80;;;;;;;;;;5012908;28;92209;-81
2023/05/19 12:24:00;;;;;;;9.88;1.98;;;;;;;;;;4998999;28;92237;-80
2023/05/19 12:26:27;;;;;;;15.48;2.05;;;;;;;;;;5011968;28;92128;-80
2023/05/19 12:28:53;;;;;;;11.65;2.65;;;;;;;;;;4985234;28;92173;-80
2023/05/19 12:31:22;;;;;;;3.83;1.77;;;;;;;;;;4997953;28;91596;-80
2023/05/19 12:33:51;;;;;;;5.85;1.92;;;;;;;;;;4998342;28;91682;-80
2023/05/19 12:36:18;;;;;;;4.88;1.77;;;;;;;;;;5000212;28;92036;-80
2023/05/19 12:38:46;;;;;;;4.85;2.00;;;;;;;;;;5007355;28;91979;-81
2023/05/19 12:41:13;;;;;;;4.07;1.95;;;;;;;;;;5000211;28;93724;-80
2023/05/19 12:43:40;;;;;;;6.15;1.88;;;;;;;;;;5001940;28;91924;-80
2023/05/19 12:46:12;;;;;;;10.93;2.10;;;;;;;;;;5003700;28;95502;-81
2023/05/19 12:48:43;;;;;;;7.95;2.17;;;;;;;;;;5006744;28;93955;-80
2023/05/19 12:51:10;;;;;;;9.35;2.42;;;;;;;;;;5010656;28;92185;-81
2023/05/19 12:53:37;;;;;;;14.00;4.20;;;;;;;;;;5005418;28;92310;-82
2023/05/19 12:56:11;;;;;;;10.38;2.75;;;;;;;;;;5009699;28;92139;-81
2023/05/19 12:58:38;;;;;;;10.38;3.50;;;;;;;;;;5013673;28;92031;-81
2023/05/19 13:01:05;;;;;;;7.93;2.53;;;;;;;;;;5024698;28;94496;-82
2023/05/19 13:03:41;;;;;;;8.05;3.08;;;;;;;;;;5011801;28;91326;-81
2023/05/19 13:06:09;;;;;;;9.52;2.63;;;;;;;;;;5010185;28;92412;-81
2023/05/19 13:08:36;;;;;;;8.27;2.25;;;;;;;;;;5010379;28;91977;-81
2023/05/19 13:11:02;;;;;;;8.52;2.53;;;;;;;;;;5011133;28;91465;-81
2023/05/19 13:13:30;;;;;;;10.38;2.20;;;;;;;;;;5017340;28;91295;-81
2023/05/19 13:15:56;;;;;;;6.32;2.40;;;;;;;;;;5017844;28;92078;-82
2023/05/19 13:18:23;;;;;;;5.93;2.00;;;;;;;;;;5017761;28;91420;-82
2023/05/19 13:20:51;;;;;;;15.45;2.33;;;;;;;;;;4998097;28;93635;-81
2023/05/19 13:23:18;;;;;;;10.88;2.33;;;;;;;;;;5007916;28;91496;-82
2023/05/19 13:25:48;;;;;;;7.38;2.05;;;;;;;;;;5004609;28;93388;-81
2023/05/19 13:28:14;;;;;;;11.77;2.47;;;;;;;;;;5002685;28;93378;-81
2023/05/19 13:30:42;;;;;;;6.70;2.53;;;;;;;;;;5003070;28;92327;-82
2023/05/19 13:33:10;;;;;;;6.43;2.10;;;;;;;;;;4988500;28;91644;-82
2023/05/19 13:35:37;;;;;;;7.35;2.40;;;;;;;;;;5002630;28;92112;-81
2023/05/19 13:38:05;;;;;;;5.85;1.98;;;;;;;;;;5005659;28;92101;-81
2023/05/19 13:40:33;;;;;;;11.40;3.00;;;;;;;;;;4992527;28;92147;-81
2023/05/19 13:43:00;;;;;;;12.95;2.50;;;;;;;;;;4999115;28;92079;-81
2023/05/19 13:45:27;;;;;;;10.55;2.63;;;;;;;;;;5007514;28;91628;-82
2023/05/19 13:47:54;;;;;;;12.40;2.17;;;;;;;;;;5002211;28;91949;-82
2023/05/19 13:50:21;;;;;;;7.68;1.75;;;;;;;;;;5002213;28;91983;-81
2023/05/19 13:52:48;;;;;;;5.30;1.88;;;;;;;;;;5006684;28;93515;-82
2023/05/19 13:55:25;;;;;;;8.00;2.13;;;;;;;;;;4991072;28;93426;-81
2023/05/19 13:57:51;;;;;;;7.95;2.03;;;;;;;;;;5009937;28;92430;-82
2023/05/19 14:00:18;;;;;;;6.00;1.80;;;;;;;;;;5015878;28;91816;-82
2023/05/19 14:02:45;;;;;;;9.35;2.58;;;;;;;;;;5011208;28;93014;-81
2023/05/19 14:05:11;;;;;;;5.10;2.03;;;;;;;;;;5008152;28;91522;-81
2023/05/19 14:07:38;;;;;;;17.45;2.83;;;;;;;;;;4989866;28;92132;-81
2023/05/19 14:10:05;;;;;;;9.55;2.50;;;;;;;;;;5003364;28;92036;-81
2023/05/19 14:12:34;;;;;;;6.88;2.10;;;;;;;;;;5000783;28;92071;-81
2023/05/19 14:15:20;;;;;;;12.43;2.17;;;;;;;;;;5000658;28;92079;-81
2023/05/19 14:17:47;;;;;;;7.43;2.22;;;;;;;;;;5002865;28;91973;-81
2023/05/19 14:20:14;;;;;;;9.02;2.03;;;;;;;;;;5000157;28;92171;-81
2023/05/19 14:22:41;;;;;;;7.88;1.77;;;;;;;;;;5000223;28;91887;-81
2023/05/19 14:25:07;;;;;;;4.03;1.75;;;;;;;;;;4995811;28;92871;-82
2023/05/19 14:27:34;;;;;;;11.38;2.47;;;;;;;;;;5012293;28;92051;-82
2023/05/19 14:30:09;;;;;;;15.60;1.63;;;;;;;;;;5008818;28;91335;-82
2023/05/19 14:32:36;;;;;;;5.28;2.05;;;;;;;;;;5005909;28;92412;-82
2023/05/19 14:35:03;;;;;;;5.88;2.05;;;;;;;;;;5019644;28;93826;-82
2023/05/19 14:37:30;;;;;;;8.60;2.13;;;;;;;;;;5011630;28;91364;-83
2023/05/19 14:39:58;;;;;;;4.70;1.90;;;;;;;;;;5026552;28;91633;-82
2023/05/19 14:42:24;;;;;;;5.68;1.95;;;;;;;;;;5016737;28;91937;-82
2023/05/19 14:44:51;;;;;;;6.43;1.88;;;;;;;;;;5017817;28;91292;-83
2023/05/19 14:47:17;;;;;;;5.50;1.73;;;;;;;;;;5018095;28;91216;-83
2023/05/19 14:49:44;;;;;;;10.88;2.08;;;;;;;;;;5014599;28;94180;-82
2023/05/19 14:52:10;;;;;;;6.57;1.80;;;;;;;;;;5011676;28;91688;-83
2023/05/19 14:54:37;;;;;;;5.18;2.00;;;;;;;;;;5010422;28;91786;-83
2023/05/19 14:57:06;;;;;;;5.28;1.98;;;;;;;;;;5014856;28;91409;-82
2023/05/19 14:59:35;;;;;;;6.93;2.70;;;;;;;;;;5014372;28;91516;-83
2023/05/19 15:02:02;;;;;;;4.45;1.48;;;;;;;;;;5018256;28;92042;-82
2023/05/19 15:04:28;;;;;;;5.22;1.45;;;;;;;;;;5018440;28;91374;-83
2023/05/19 15:06:56;;;;;;;5.95;1.48;;;;;;;;;;5014820;28;91344;-83
2023/05/19 15:09:36;;;;;;;7.63;2.33;;;;;;;;;;5009332;28;92116;-82
2023/05/19 15:12:02;;;;;;;3.20;1.52;;;;;;;;;;5019874;28;91375;-82
2023/05/19 15:14:29;;;;;;;8.40;1.98;;;;;;;;;;5005763;28;94156;-83
2023/05/19 15:16:56;;;;;;;9.85;2.50;;;;;;;;;;5010054;28;91878;-83
2023/05/19 15:19:23;;;;;;;11.38;2.20;;;;;;;;;;5008306;28;92098;-81
2023/05/19 15:21:50;;;;;;;9.57;1.92;;;;;;;;;;5006777;28;92117;-81
2023/05/19 15:24:16;;;;;;;4.75;1.55;;;;;;;;;;5015434;28;92026;-82
2023/05/19 15:26:43;;;;;;;3.97;1.50;;;;;;;;;;5008501;28;92063;-82
2023/05/19 15:29:09;;;;;;;4.25;2.30;;;;;;;;;;5009334;28;93127;-82
2023/05/19 15:31:36;;;;;;;7.25;1.85;;;;;;;;;;5015610;28;91881;-82
2023/05/19 15:34:04;;;;;;;3.20;1.80;;;;;;;;;;5005350;28;91943;-82
2023/05/19 15:36:30;;;;;;;7.68;2.20;;;;;;;;;;5007680;28;92710;-83
2023/05/19 15:38:57;;;;;;;6.82;2.25;;;;;;;;;;5006857;28;91217;-83
2023/05/19 15:41:23;;;;;;;6.60;2.03;;;;;;;;;;5007901;28;94678;-83
2023/05/19 15:43:50;;;;;;;7.57;1.80;;;;;;;;;;5005838;28;91807;-83
2023/05/19 15:46:18;;;;;;;8.07;1.95;;;;;;;;;;5004005;28;95067;-82
2023/05/19 15:48:45;;;;;;;8.13;2.08;;;;;;;;;;4987606;28;93756;-83
2023/05/19 15:51:11;;;;;;;8.23;1.73;;;;;;;;;;5007643;28;92574;-83
2023/05/19 15:53:38;;;;;;;6.95;2.03;;;;;;;;;;5007965;28;91811;-82
2023/05/19 15:56:04;;;;;;;4.35;1.67;;;;;;;;;;5008370;28;92032;-82
2023/05/19 15:58:31;;;;;;;6.95;1.90;;;;;;;;;;4982462;28;91657;-82
2023/05/19 16:00:58;;;;;;;4.93;1.52;;;;;;;;;;4994106;28;92076;-82
2023/05/19 16:03:24;;;;;;;3.63;1.55;;;;;;;;;;5005084;28;91956;-83
2023/05/19 16:05:51;;;;;;;3.13;1.75;;;;;;;;;;5004611;28;92207;-81
2023/05/19 16:08:18;;;;;;;13.45;2.10;;;;;;;;;;5009237;28;92156;-83
2023/05/19 16:10:45;;;;;;;5.07;2.00;;;;;;;;;;5010663;28;91985;-82
2023/05/19 16:13:11;;;;;;;6.78;1.90;;;;;;;;;;5021195;28;92340;-82
2023/05/19 16:15:38;;;;;;;5.90;2.00;;;;;;;;;;5022544;28;91966;-82
2023/05/19 16:18:04;;;;;;;12.30;1.90;;;;;;;;;;5006280;28;92048;-82
2023/05/19 16:20:31;;;;;;;12.60;2.30;;;;;;;;;;5007647;28;93931;-83
2023/05/19 16:22:58;;;;;;;12.45;2.10;;;;;;;;;;5012160;28;92892;-82
2023/05/19 16:25:24;;;;;;;6.50;1.73;;;;;;;;;;5006560;28;93541;-84
2023/05/19 16:27:51;;;;;;;12.43;2.13;;;;;;;;;;5003774;28;92043;-83
2023/05/19 16:30:17;;;;;;;8.07;1.90;;;;;;;;;;5008608;28;92056;-82
2023/05/19 16:32:44;;;;;;;11.63;2.17;;;;;;;;;;5010340;28;92051;-82
2023/05/19 16:35:14;;;;;;;7.20;2.28;;;;;;;;;;5006143;28;91910;-83
2023/05/19 16:37:41;;;;;;;6.65;1.77;;;;;;;;;;4989295;28;91829;-83
2023/05/19 16:40:08;;;;;;;5.03;1.98;;;;;;;;;;5003267;28;92163;-83
2023/05/19 16:42:34;;;;;;;7.78;1.52;;;;;;;;;;5004645;28;92170;-83
2023/05/19 16:45:01;;;;;;;6.35;2.33;;;;;;;;;;4998851;28;93388;-83
2023/05/19 16:47:27;;;;;;;4.65;1.85;;;;;;;;;;4998015;28;94813;-82
2023/05/19 16:49:54;;;;;;;9.20;2.20;;;;;;;;;;4998388;28;92189;-83
2023/05/19 16:52:20;;;;;;;6.38;1.88;;;;;;;;;;4998861;28;92461;-82
2023/05/19 16:54:49;;;;;;;6.20;1.80;;;;;;;;;;4998910;28;92072;-82
2023/05/19 16:57:16;;;;;;;7.40;1.65;;;;;;;;;;4996983;28;91908;-83
2023/05/19 16:59:42;;;;;;;6.90;2.40;;;;;;;;;;5001836;28;92637;-83
2023/05/19 17:02:09;;;;;;;6.53;2.40;;;;;;;;;;5000893;28;91643;-83
2023/05/19 17:04:36;;;;;;;6.30;1.88;;;;;;;;;;4996477;28;92086;-82
2023/05/19 17:07:02;;;;;;;9.77;2.05;;;;;;;;;;4997993;28;92142;-83
2023/05/19 17:09:29;;;;;;;4.45;2.08;;;;;;;;;;5000515;28;91968;-82
2023/05/19 17:11:55;;;;;;;5.47;2.22;;;;;;;;;;4997622;28;95463;-82
2023/05/19 17:14:22;;;;;;;8.55;2.35;;;;;;;;;;4999280;28;92144;-82
2023/05/19 17:16:51;;;;;;;6.38;2.00;;;;;;;;;;4997786;28;92076;-82
2023/05/19 17:19:17;;;;;;;13.70;2.15;;;;;;;;;;5002165;28;92043;-82
2023/05/19 17:21:45;;;;;;;5.28;2.22;;;;;;;;;;4981645;28;95208;-81
2023/05/19 17:24:11;;;;;;;7.68;2.22;;;;;;;;;;4982412;28;92018;-81
2023/05/19 17:26:38;;;;;;;7.68;2.42;;;;;;;;;;4997245;28;92416;-80
2023/05/19 17:29:04;;;;;;;5.75;1.67;;;;;;;;;;4999198;28;92136;-80
2023/05/19 17:31:31;;;;;;;5.47;2.33;;;;;;;;;;4997347;28;92360;-80
2023/05/19 17:33:58;;;;;;;7.03;2.13;;;;;;;;;;4997052;28;93812;-81
2023/05/19 17:36:25;;;;;;;8.93;2.13;;;;;;;;;;5002269;28;92090;-81
2023/05/19 17:38:51;;;;;;;4.50;1.98;;;;;;;;;;5002928;28;92012;-81
2023/05/19 17:41:18;;;;;;;4.63;2.25;;;;;;;;;;5002272;28;92168;-80
2023/05/19 17:43:44;;;;;;;6.30;2.03;;;;;;;;;;4999454;28;92001;-80
2023/05/19 17:46:11;;;;;;;6.03;2.03;;;;;;;;;;4999954;28;92028;-80
2023/05/19 17:48:38;;;;;;;8.18;2.10;;;;;;;;;;4997271;28;92138;-80
2023/05/19 17:51:08;;;;;;;11.43;2.30;;;;;;;;;;4986098;28;92156;-80
2023/05/19 17:53:35;;;;;;;11.55;2.17;;;;;;;;;;5003132;28;91973;-80
2023/05/19 17:56:03;;;;;;;7.72;2.10;;;;;;;;;;5002507;28;91688;-80
2023/05/19 17:58:30;;;;;;;10.60;2.95;;;;;;;;;;4999754;28;92004;-80
2023/05/19 18:00:56;;;;;;;6.05;1.90;;;;;;;;;;4997174;28;92168;-80
2023/05/19 18:03:23;;;;;;;2.97;1.55;;;;;;;;;;5001458;28;92265;-81
2023/05/19 18:05:50;;;;;;;12.32;2.33;;;;;;;;;;5009615;28;95394;-81
2023/05/19 18:08:17;;;;;;;9.45;2.13;;;;;;;;;;5000104;28;92041;-81
2023/05/19 18:10:44;;;;;;;4.22;1.90;;;;;;;;;;5009560;28;91976;-80
2023/05/19 18:13:14;;;;;;;5.53;2.38;;;;;;;;;;5000875;28;92184;-82
2023/05/19 18:15:41;;;;;;;9.18;2.13;;;;;;;;;;4976938;28;92205;-82
2023/05/19 18:18:09;;;;;;;7.55;2.33;;;;;;;;;;4994962;28;92225;-81
2023/05/19 18:20:42;;;;;;;14.15;2.20;;;;;;;;;;4995025;28;94455;-82
2023/05/19 18:23:09;;;;;;;6.72;2.30;;;;;;;;;;5008736;28;91900;-82
2023/05/19 18:25:36;;;;;;;6.72;1.98;;;;;;;;;;5012307;28;91977;-82
2023/05/19 18:28:03;;;;;;;5.85;1.85;;;;;;;;;;5003952;28;92070;-82
2023/05/19 18:30:30;;;;;;;15.32;2.72;;;;;;;;;;5002776;28;94203;-82
2023/05/19 18:33:00;;;;;;;5.68;2.67;;;;;;;;;;5000273;28;94545;-81
2023/05/19 18:35:27;;;;;;;11.90;2.85;;;;;;;;;;5019738;28;92141;-81
2023/05/19 18:37:55;;;;;;;8.77;2.65;;;;;;;;;;5006679;28;93502;-81
2023/05/19 18:40:21;;;;;;;6.28;2.00;;;;;;;;;;5009809;28;95288;-81
2023/05/19 18:42:48;;;;;;;11.68;2.28;;;;;;;;;;4997487;28;92250;-81
2023/05/19 18:45:15;;;;;;;10.00;2.63;;;;;;;;;;4991893;28;94511;-81
2023/05/19 18:47:42;;;;;;;4.75;2.15;;;;;;;;;;4999841;28;93846;-82
2023/05/19 18:50:08;;;;;;;5.00;2.10;;;;;;;;;;4995850;28;91989;-81
2023/05/19 18:52:35;;;;;;;5.95;2.17;;;;;;;;;;5002188;28;93972;-81
2023/05/19 18:55:02;;;;;;;7.95;2.88;;;;;;;;;;4990149;28;92271;-81
2023/05/19 18:57:29;;;;;;;4.70;2.50;;;;;;;;;;5000395;28;92064;-81
2023/05/19 18:59:55;;;;;;;10.02;3.45;;;;;;;;;;4983678;28;94354;-81
2023/05/19 19:02:22;;;;;;;4.07;2.20;;;;;;;;;;4997801;28;92269;-82
2023/05/19 19:04:49;;;;;;;6.95;3.20;;;;;;;;;;5002948;28;91952;-82
2023/05/19 19:07:15;;;;;;;4.90;2.53;;;;;;;;;;4984682;28;92041;-81
2023/05/19 19:09:42;;;;;;;3.38;2.38;;;;;;;;;;5004502;28;91954;-81
2023/05/19 19:12:09;;;;;;;9.63;2.85;;;;;;;;;;5004489;28;94960;-81
2023/05/19 19:14:36;;;;;;;6.75;2.00;;;;;;;;;;4983477;28;91944;-81
2023/05/19 19:17:02;;;;;;;9.43;2.10;;;;;;;;;;5003580;28;92302;-81
2023/05/19 19:19:29;;;;;;;5.25;2.50;;;;;;;;;;5001117;28;92175;-80
2023/05/19 19:21:56;;;;;;;5.85;2.55;;;;;;;;;;5002420;28;91960;-81
2023/05/19 19:24:23;;;;;;;5.38;2.80;;;;;;;;;;5005880;28;93702;-82
2023/05/19 19:26:50;;;;;;;5.78;2.78;;;;;;;;;;4999634;28;95133;-82
2023/05/19 19:29:17;;;;;;;4.63;2.72;;;;;;;;;;5002785;28;91874;-81
2023/05/19 19:31:43;;;;;;;7.85;3.58;;;;;;;;;;5007000;28;91797;-82
2023/05/19 19:34:10;;;;;;;5.82;3.60;;;;;;;;;;5005886;28;92071;-81
2023/05/19 19:36:37;;;;;;;5.35;3.38;;;;;;;;;;5009721;28;93915;-81
2023/05/19 19:39:03;;;;;;;16.95;10.02;;;;;;;;;;5023871;28;92230;-82
2023/05/19 19:41:32;;;;;;;30.40;19.85;;;;;;;;;;5012819;28;91830;-82
2023/05/19 19:43:58;;;;;;;16.92;10.18;;;;;;;;;;5004453;28;94736;-82
2023/05/19 19:46:24;;;;;;;18.90;11.00;;;;;;;;;;5011783;28;92847;-82
2023/05/19 19:48:51;;;;;;;14.45;9.30;;;;;;;;;;5010063;28;91726;-83
2023/05/19 19:51:18;;;;;;;40.30;23.70;;;;;;;;;;5011155;28;92440;-82
2023/05/19 19:53:44;;;;;;;33.42;18.00;;;;;;;;;;5010976;28;92653;-82
2023/05/19 19:56:11;;;;;;;22.40;13.73;;;;;;;;;;5023784;28;91975;-82
2023/05/19 19:58:37;;;;;;;20.77;14.18;;;;;;;;;;5007047;28;92138;-82
2023/05/19 20:01:04;;;;;;;26.20;14.75;;;;;;;;;;5011590;28;91749;-82
2023/05/19 20:03:32;;;;;;;14.07;8.05;;;;;;;;;;5023538;28;94715;-82
2023/05/19 20:05:58;;;;;;;12.00;5.32;;;;;;;;;;5018102;28;94819;-82
2023/05/19 20:08:25;;;;;;;17.20;9.27;;;;;;;;;;5028300;28;91570;-82
2023/05/19 20:10:52;;;;;;;26.92;10.90;;;;;;;;;;5013932;28;91789;-82
2023/05/19 20:13:19;;;;;;;15.80;7.57;;;;;;;;;;5029040;28;92054;-82
2023/05/19 20:15:45;;;;;;;7.88;4.10;;;;;;;;;;5012622;28;91903;-83
2023/05/19 20:18:12;;;;;;;14.57;5.63;;;;;;;;;;4997230;28;94111;-82
2023/05/19 20:20:38;;;;;;;8.15;2.80;;;;;;;;;;5013130;28;91307;-83
2023/05/19 20:23:06;;;;;;;8.32;3.00;;;;;;;;;;5011269;28;91928;-82
2023/05/19 20:25:33;;;;;;;6.68;2.60;;;;;;;;;;5004178;28;94380;-82
2023/05/19 20:28:03;;;;;;;5.20;2.22;;;;;;;;;;5014336;28;92154;-82
2023/05/19 20:30:30;;;;;;;4.55;2.53;;;;;;;;;;5010984;28;92020;-84
2023/05/19 20:32:57;;;;;;;10.98;3.40;;;;;;;;;;5007331;28;91694;-82
2023/05/19 20:35:24;;;;;;;10.90;2.50;;;;;;;;;;4995007;28;91694;-82
2023/05/19 20:37:52;;;;;;;8.60;3.08;;;;;;;;;;4994782;28;91912;-82
2023/05/19 20:40:19;;;;;;;12.10;3.00;;;;;;;;;;4964466;28;91881;-82
2023/05/19 20:42:47;;;;;;;8.73;2.83;;;;;;;;;;4969615;28;94069;-82
2023/05/19 20:45:15;;;;;;;14.90;4.13;;;;;;;;;;4991645;28;92803;-82
2023/05/19 20:47:44;;;;;;;10.48;3.05;;;;;;;;;;4994302;28;92012;-82
2023/05/19 20:50:10;;;;;;;14.60;3.42;;;;;;;;;;4994755;28;91734;-82
2023/05/19 20:52:37;;;;;;;11.20;3.60;;;;;;;;;;4992478;28;91856;-82
2023/05/19 20:55:05;;;;;;;12.25;4.07;;;;;;;;;;4982181;28;92120;-83
2023/05/19 20:57:34;;;;;;;9.77;3.10;;;;;;;;;;5006029;28;91652;-82
2023/05/19 21:00:01;;;;;;;14.48;3.90;;;;;;;;;;5001338;28;91979;-82
2023/05/19 21:02:32;;;;;;;12.10;3.05;;;;;;;;;;5007214;28;92025;-82
2023/05/19 21:04:59;;;;;;;9.35;3.58;;;;;;;;;;5004530;28;95013;-82
2023/05/19 21:07:27;;;;;;;11.48;3.50;;;;;;;;;;4999746;28;91590;-82
2023/05/19 21:09:53;;;;;;;10.85;3.28;;;;;;;;;;4994612;28;95257;-81
2023/05/19 21:12:23;;;;;;;9.57;3.20;;;;;;;;;;5002023;28;91957;-83
2023/05/19 21:14:50;;;;;;;13.73;3.20;;;;;;;;;;5005295;28;91782;-82
2023/05/19 21:17:17;;;;;;;8.82;3.45;;;;;;;;;;5012314;28;92203;-82
2023/05/19 21:19:47;;;;;;;9.85;3.85;;;;;;;;;;5001996;28;95760;-82
2023/05/19 21:22:19;;;;;;;12.52;3.33;;;;;;;;;;4998734;28;92280;-81
2023/05/19 21:24:46;;;;;;;14.93;3.63;;;;;;;;;;4986065;28;93666;-82
2023/05/19 21:27:13;;;;;;;10.00;3.75;;;;;;;;;;5006181;28;91975;-82
2023/05/19 21:29:40;;;;;;;9.13;3.83;;;;;;;;;;5006238;28;92063;-82
2023/05/19 21:32:07;;;;;;;9.73;3.60;;;;;;;;;;5018852;28;92870;-82
2023/05/19 21:34:37;;;;;;;10.75;3.50;;;;;;;;;;5002348;28;91517;-82
2023/05/19 21:37:04;;;;;;;15.32;3.22;;;;;;;;;;5009124;28;91681;-82
2023/05/19 21:39:30;;;;;;;10.93;3.13;;;;;;;;;;5010075;28;91776;-82
2023/05/19 21:41:57;;;;;;;10.40;3.47;;;;;;;;;;5011647;28;92055;-83
2023/05/19 21:44:24;;;;;;;11.40;3.60;;;;;;;;;;5008807;28;92153;-82
2023/05/19 21:46:53;;;;;;;15.18;3.40;;;;;;;;;;5008228;28;91959;-82
2023/05/19 21:49:20;;;;;;;7.30;2.90;;;;;;;;;;5007781;28;92186;-82
2023/05/19 21:51:49;;;;;;;11.45;3.45;;;;;;;;;;5009914;28;92968;-82
2023/05/19 21:54:16;;;;;;;12.05;3.97;;;;;;;;;;4988828;28;91327;-82
2023/05/19 21:56:45;;;;;;;10.02;3.65;;;;;;;;;;5006765;28;94501;-82
2023/05/19 21:59:12;;;;;;;8.88;3.35;;;;;;;;;;4995102;28;92999;-82
2023/05/19 22:01:43;;;;;;;19.05;3.90;;;;;;;;;;5007584;28;92008;-82
2023/05/19 22:04:10;;;;;;;8.75;3.42;;;;;;;;;;4997971;28;92834;-82
2023/05/19 22:06:37;;;;;;;12.00;3.15;;;;;;;;;;4995036;28;92313;-82
2023/05/19 22:09:06;;;;;;;13.60;3.40;;;;;;;;;;5007901;28;94242;-82
2023/05/19 22:11:32;;;;;;;18.77;3.45;;;;;;;;;;5007588;28;92205;-82
2023/05/19 22:13:59;;;;;;;12.60;3.35;;;;;;;;;;5008012;28;91975;-82
2023/05/19 22:16:29;;;;;;;8.80;3.40;;;;;;;;;;5010670;28;92262;-82
2023/05/19 22:18:59;;;;;;;5.13;2.60;;;;;;;;;;4997160;28;91835;-82
2023/05/19 22:21:25;;;;;;;12.32;3.58;;;;;;;;;;5010332;28;92113;-82
2023/05/19 22:23:54;;;;;;;14.65;3.15;;;;;;;;;;4999754;28;91877;-82
2023/05/19 22:26:23;;;;;;;17.98;3.58;;;;;;;;;;4991168;28;92286;-82
2023/05/19 22:28:49;;;;;;;14.85;3.60;;;;;;;;;;4999209;28;91710;-82
2023/05/19 22:31:18;;;;;;;11.77;3.35;;;;;;;;;;4979363;28;92488;-82
2023/05/19 22:33:45;;;;;;;21.83;3.97;;;;;;;;;;4996163;28;92305;-82
2023/05/19 22:36:12;;;;;;;9.43;3.00;;;;;;;;;;4983363;28;91990;-82
2023/05/19 22:38:38;;;;;;;6.70;3.10;;;;;;;;;;4983153;28;94701;-82
2023/05/19 22:41:05;;;;;;;16.17;4.07;;;;;;;;;;4991075;28;92152;-81
2023/05/19 22:43:31;;;;;;;11.38;2.80;;;;;;;;;;4977951;28;92035;-82
2023/05/19 22:45:58;;;;;;;11.23;3.17;;;;;;;;;;4991388;28;92978;-81
2023/05/19 22:48:24;;;;;;;10.00;3.35;;;;;;;;;;4998228;28;92157;-82
2023/05/19 22:50:51;;;;;;;10.07;2.83;;;;;;;;;;4997697;28;92137;-82
2023/05/19 22:53:18;;;;;;;11.45;3.55;;;;;;;;;;4996858;28;92241;-82
2023/05/19 22:55:44;;;;;;;8.52;3.05;;;;;;;;;;4997539;28;94594;-82
2023/05/19 22:58:11;;;;;;;12.93;3.70;;;;;;;;;;4997765;28;95562;-82
2023/05/19 23:00:38;;;;;;;12.55;2.88;;;;;;;;;;4982223;28;92192;-83
2023/05/19 23:03:04;;;;;;;8.48;3.30;;;;;;;;;;4999056;28;92035;-82
2023/05/19 23:05:31;;;;;;;11.27;3.60;;;;;;;;;;5002487;28;93964;-82
2023/05/19 23:07:58;;;;;;;8.45;2.90;;;;;;;;;;5003780;28;91847;-82
2023/05/19 23:10:24;;;;;;;18.65;4.28;;;;;;;;;;5000473;28;92400;-82
2023/05/19 23:12:51;;;;;;;15.18;2.97;;;;;;;;;;5009043;28;91882;-82
2023/05/19 23:15:17;;;;;;;13.98;3.92;;;;;;;;;;5002868;28;92006;-82
2023/05/19 23:17:44;;;;;;;13.77;4.47;;;;;;;;;;5008042;28;92990;-83
2023/05/19 23:20:11;;;;;;;12.88;3.80;;;;;;;;;;5009493;28;91634;-82
2023/05/19 23:22:38;;;;;;;6.70;2.88;;;;;;;;;;5009348;28;92390;-82
2023/05/19 23:25:06;;;;;;;7.07;3.28;;;;;;;;;;5009519;28;91891;-82
2023/05/19 23:27:34;;;;;;;8.02;3.67;;;;;;;;;;5014880;28;92061;-82
2023/05/19 23:30:00;;;;;;;13.43;4.18;;;;;;;;;;5013202;28;91896;-82
2023/05/19 23:32:27;;;;;;;7.70;3.25;;;;;;;;;;5010600;28;91564;-82
2023/05/19 23:34:54;;;;;;;10.55;3.72;;;;;;;;;;5019303;28;92438;-82
2023/05/19 23:37:20;;;;;;;7.13;3.13;;;;;;;;;;5026845;28;93656;-82
2023/05/19 23:39:47;;;;;;;11.40;4.07;;;;;;;;;;5008038;28;92257;-82
2023/05/19 23:42:13;;;;;;;6.15;3.10;;;;;;;;;;5009479;28;91236;-82
2023/05/19 23:44:40;;;;;;;7.22;3.17;;;;;;;;;;5015312;28;94872;-82
2023/05/19 23:47:06;;;;;;;10.85;4.25;;;;;;;;;;5016166;28;91428;-82
2023/05/19 23:49:33;;;;;;;8.45;3.22;;;;;;;;;;5022527;28;93291;-82
2023/05/19 23:52:00;;;;;;;11.80;3.38;;;;;;;;;;5010975;28;91911;-82
2023/05/19 23:54:26;;;;;;;11.48;4.78;;;;;;;;;;5009445;28;92099;-82
2023/05/19 23:56:54;;;;;;;16.15;4.20;;;;;;;;;;5008695;28;92516;-82
2023/05/19 23:59:21;;;;;;;12.10;4.60;;;;;;;;;;5009853;28;92170;-82
